Time;durP1;ratioP1;P1;durP2;ratioP2;P2;SDS_P1;SDS_P2;PMS_P1;PMS_P2;Temp;Humidity;BMP_temperature;BMP_pressure;BME280_temperature;BME280_humidity;BME280_pressure;Samples;Min_cycle;Max_cycle;Signal;HPM_P1;HPM_P2
2021/04/19 00:00:20;;;;;;;17.10;12.23;;;;;;;;;;4961658;28;20074;-82
2021/04/19 00:02:46;;;;;;;17.70;12.80;;;;;;;;;;4978857;28;20049;-82
2021/04/19 00:05:18;;;;;;;19.00;12.70;;;;;;;;;;4978688;28;20066;-84
2021/04/19 00:07:44;;;;;;;18.60;13.45;;;;;;;;;;4979073;28;20113;-84
2021/04/19 00:10:10;;;;;;;16.50;12.35;;;;;;;;;;4979337;28;20037;-84
2021/04/19 00:12:36;;;;;;;20.33;11.65;;;;;;;;;;4978935;28;20030;-84
2021/04/19 00:15:03;;;;;;;16.63;11.77;;;;;;;;;;4978695;28;20030;-84
2021/04/19 00:17:30;;;;;;;17.98;11.85;;;;;;;;;;4978494;28;20110;-84
2021/04/19 00:19:56;;;;;;;17.33;12.40;;;;;;;;;;4961873;28;20023;-84
2021/04/19 00:22:22;;;;;;;17.25;12.35;;;;;;;;;;4962019;28;20027;-84
2021/04/19 00:24:48;;;;;;;15.80;12.07;;;;;;;;;;4980779;28;20409;-84
2021/04/19 00:27:14;;;;;;;17.98;12.45;;;;;;;;;;4985056;28;20460;-84
2021/04/19 00:29:40;;;;;;;14.70;11.73;;;;;;;;;;4985446;28;20345;-84
2021/04/19 00:32:06;;;;;;;15.82;11.55;;;;;;;;;;4985140;28;20053;-84
2021/04/19 00:34:32;;;;;;;16.30;10.98;;;;;;;;;;4967475;28;20039;-83
2021/04/19 00:36:58;;;;;;;13.48;10.25;;;;;;;;;;4984799;28;20014;-79
2021/04/19 00:39:25;;;;;;;13.52;10.45;;;;;;;;;;4967066;28;20082;-84
2021/04/19 00:41:51;;;;;;;15.98;9.60;;;;;;;;;;4985351;28;20066;-84
2021/04/19 00:47:20;;;;;;;14.13;10.50;;;;;;;;;;4984947;28;20046;-84
2021/04/19 00:49:46;;;;;;;13.52;10.70;;;;;;;;;;4984772;28;20416;-84
2021/04/19 00:52:13;;;;;;;15.65;9.88;;;;;;;;;;4985054;28;20380;-84
2021/04/19 00:54:39;;;;;;;12.30;10.15;;;;;;;;;;4985188;28;20027;-84
2021/04/19 00:57:05;;;;;;;12.32;9.93;;;;;;;;;;4984714;28;20054;-84
2021/04/19 01:02:35;;;;;;;13.30;9.77;;;;;;;;;;4984862;28;20432;-85
2021/04/19 01:05:01;;;;;;;12.77;10.15;;;;;;;;;;4985003;28;20050;-85
2021/04/19 01:07:27;;;;;;;13.13;10.30;;;;;;;;;;4984957;28;20023;-85
2021/04/19 01:09:53;;;;;;;12.52;10.30;;;;;;;;;;4985022;28;20031;-84
2021/04/19 01:12:19;;;;;;;13.98;10.70;;;;;;;;;;4985052;28;20102;-84
2021/04/19 01:14:45;;;;;;;14.07;10.18;;;;;;;;;;4984636;28;20015;-85
2021/04/19 01:17:11;;;;;;;12.75;10.70;;;;;;;;;;4984400;28;20151;-84
2021/04/19 01:19:37;;;;;;;13.07;10.77;;;;;;;;;;4984953;28;20409;-84
2021/04/19 01:22:03;;;;;;;15.25;11.27;;;;;;;;;;4984830;28;20329;-84
2021/04/19 01:24:29;;;;;;;13.45;10.73;;;;;;;;;;4984621;28;20027;-86
2021/04/19 01:26:55;;;;;;;13.85;10.88;;;;;;;;;;4967962;28;20026;-86
2021/04/19 01:29:40;;;;;;;15.82;11.55;;;;;;;;;;4984801;28;20041;-86
2021/04/19 01:32:07;;;;;;;12.82;10.48;;;;;;;;;;4984501;28;20436;-86
2021/04/19 01:34:33;;;;;;;17.85;12.40;;;;;;;;;;4967476;28;20034;-86
2021/04/19 01:37:03;;;;;;;14.85;11.60;;;;;;;;;;4964092;28;20038;-86
2021/04/19 01:39:29;;;;;;;14.48;12.07;;;;;;;;;;4981377;28;20125;-85
2021/04/19 01:41:56;;;;;;;14.98;11.57;;;;;;;;;;4964359;28;20413;-85
2021/04/19 01:44:22;;;;;;;15.98;12.73;;;;;;;;;;4964470;28;20023;-85
2021/04/19 01:46:48;;;;;;;13.32;11.93;;;;;;;;;;4981676;28;20053;-85
2021/04/19 01:49:17;;;;;;;13.45;11.82;;;;;;;;;;4981184;28;20106;-84
2021/04/19 01:51:44;;;;;;;13.35;11.70;;;;;;;;;;4980978;28;20073;-84
2021/04/19 01:54:10;;;;;;;13.70;12.02;;;;;;;;;;4981464;28;20050;-84
2021/04/19 01:56:46;;;;;;;14.45;12.27;;;;;;;;;;4980984;28;20022;-87
2021/04/19 02:02:20;;;;;;;13.35;11.75;;;;;;;;;;4981301;28;20029;-84
2021/04/19 02:04:55;;;;;;;14.07;11.88;;;;;;;;;;4981178;28;20023;-84
2021/04/19 02:07:27;;;;;;;13.52;11.27;;;;;;;;;;4981108;28;20065;-84
2021/04/19 02:09:53;;;;;;;15.95;10.38;;;;;;;;;;4963450;28;20483;-84
2021/04/19 02:12:36;;;;;;;12.98;10.18;;;;;;;;;;4980886;28;20039;-85
2021/04/19 02:15:16;;;;;;;11.05;9.45;;;;;;;;;;4963862;28;20417;-84
2021/04/19 02:17:47;;;;;;;12.23;9.25;;;;;;;;;;4980507;28;20114;-84
2021/04/19 02:20:25;;;;;;;10.40;8.70;;;;;;;;;;4963719;28;20429;-85
2021/04/19 02:22:54;;;;;;;11.85;9.02;;;;;;;;;;4963603;28;20149;-84
2021/04/19 02:25:23;;;;;;;9.48;8.10;;;;;;;;;;4980633;28;20026;-84
2021/04/19 02:27:58;;;;;;;11.38;8.82;;;;;;;;;;4980502;28;20031;-83
2021/04/19 02:30:27;;;;;;;11.18;8.77;;;;;;;;;;4963297;28;20034;-84
2021/04/19 02:32:54;;;;;;;12.00;9.93;;;;;;;;;;4980538;28;20022;-84
2021/04/19 02:35:22;;;;;;;11.32;9.88;;;;;;;;;;4963177;28;20030;-84
2021/04/19 02:37:48;;;;;;;13.07;10.02;;;;;;;;;;4980579;28;20027;-84
2021/04/19 02:40:15;;;;;;;12.85;10.18;;;;;;;;;;4980277;28;20037;-85
2021/04/19 02:42:44;;;;;;;13.75;10.95;;;;;;;;;;4980223;28;20110;-84
2021/04/19 02:48:15;;;;;;;13.27;11.27;;;;;;;;;;4980353;28;20057;-84
2021/04/19 02:50:42;;;;;;;13.90;11.88;;;;;;;;;;4980086;28;20118;-84
2021/04/19 02:53:08;;;;;;;15.55;13.00;;;;;;;;;;4979858;28;20398;-81
2021/04/19 02:55:35;;;;;;;15.55;12.35;;;;;;;;;;4979716;28;20027;-82
2021/04/19 02:58:02;;;;;;;16.10;12.65;;;;;;;;;;4980292;28;20027;-84
2021/04/19 03:00:30;;;;;;;15.73;13.00;;;;;;;;;;4980185;28;20038;-85
2021/04/19 03:02:57;;;;;;;14.85;11.38;;;;;;;;;;4962963;28;20027;-85
2021/04/19 03:05:23;;;;;;;14.88;12.43;;;;;;;;;;4979946;28;20023;-85
2021/04/19 03:07:53;;;;;;;16.13;13.30;;;;;;;;;;4979776;28;20033;-85
2021/04/19 03:10:19;;;;;;;16.52;13.80;;;;;;;;;;4979614;28;20026;-85
2021/04/19 03:12:48;;;;;;;15.05;12.80;;;;;;;;;;4979794;28;20509;-85
2021/04/19 03:15:16;;;;;;;16.58;13.98;;;;;;;;;;4962269;28;20125;-85
2021/04/19 03:17:42;;;;;;;16.73;13.25;;;;;;;;;;4979504;28;20425;-85
2021/04/19 03:20:11;;;;;;;16.25;13.15;;;;;;;;;;4979897;28;20027;-85
2021/04/19 03:22:37;;;;;;;17.33;13.48;;;;;;;;;;4962574;28;20073;-85
2021/04/19 03:25:07;;;;;;;16.30;13.07;;;;;;;;;;4979549;28;20421;-85
2021/04/19 03:27:34;;;;;;;17.20;13.50;;;;;;;;;;4979501;28;20125;-85
2021/04/19 03:30:18;;;;;;;18.67;14.13;;;;;;;;;;4962071;28;20472;-85
2021/04/19 03:32:48;;;;;;;19.13;14.98;;;;;;;;;;4979672;28;20030;-85
2021/04/19 03:35:15;;;;;;;18.65;14.82;;;;;;;;;;4979279;28;20423;-85
2021/04/19 03:37:44;;;;;;;18.05;14.43;;;;;;;;;;4979262;28;20023;-85
2021/04/19 03:40:20;;;;;;;24.80;17.08;;;;;;;;;;4979288;28;20026;-85
2021/04/19 03:42:46;;;;;;;23.67;16.08;;;;;;;;;;4962274;28;20030;-85
2021/04/19 03:45:14;;;;;;;24.25;16.60;;;;;;;;;;4979123;28;20030;-86
2021/04/19 03:47:40;;;;;;;22.73;16.17;;;;;;;;;;4979472;28;20031;-86
2021/04/19 03:50:07;;;;;;;23.63;16.42;;;;;;;;;;4979290;28;20022;-86
2021/04/19 03:52:36;;;;;;;24.75;16.80;;;;;;;;;;4979342;28;20369;-85
2021/04/19 03:55:04;;;;;;;21.35;15.30;;;;;;;;;;4979108;28;20057;-85
2021/04/19 03:57:32;;;;;;;23.25;16.58;;;;;;;;;;4978947;28;20026;-83
2021/04/19 04:00:19;;;;;;;24.88;18.38;;;;;;;;;;4961012;28;20046;-84
2021/04/19 04:02:47;;;;;;;21.92;16.88;;;;;;;;;;4978723;28;20035;-83
2021/04/19 04:05:14;;;;;;;19.30;16.30;;;;;;;;;;4978633;28;20066;-83
2021/04/19 04:07:40;;;;;;;19.80;15.57;;;;;;;;;;4978919;28;20286;-83
2021/04/19 04:10:08;;;;;;;19.63;15.50;;;;;;;;;;4978637;28;20434;-84
2021/04/19 04:12:35;;;;;;;20.13;15.88;;;;;;;;;;4978734;28;20031;-83
2021/04/19 04:18:05;;;;;;;19.35;15.88;;;;;;;;;;4970278;28;20082;-84
2021/04/19 04:20:31;;;;;;;20.98;15.30;;;;;;;;;;4978589;28;20418;-85
2021/04/19 04:22:57;;;;;;;17.52;14.57;;;;;;;;;;4978946;28;20046;-85
2021/04/19 04:25:25;;;;;;;17.50;14.23;;;;;;;;;;4978986;28;20027;-84
2021/04/19 04:27:52;;;;;;;18.88;15.27;;;;;;;;;;4978910;28;20073;-84
2021/04/19 04:30:36;;;;;;;20.13;15.45;;;;;;;;;;4978731;28;20035;-84
2021/04/19 04:33:03;;;;;;;21.40;16.20;;;;;;;;;;4978438;28;20053;-84
2021/04/19 04:35:29;;;;;;;21.20;16.00;;;;;;;;;;4978617;28;20456;-85
2021/04/19 04:37:57;;;;;;;20.20;15.80;;;;;;;;;;4978643;28;20019;-85
2021/04/19 04:40:23;;;;;;;21.95;16.92;;;;;;;;;;4961541;28;20041;-85
2021/04/19 04:42:51;;;;;;;20.45;16.02;;;;;;;;;;4978577;28;20034;-85
2021/04/19 04:51:26;;;;;;;25.52;18.17;;;;;;;;;;4978516;28;20041;-86
2021/04/19 04:53:54;;;;;;;24.42;18.23;;;;;;;;;;4961380;28;20070;-85
2021/04/19 04:56:23;;;;;;;24.58;18.50;;;;;;;;;;4961352;28;20023;-85
2021/04/19 04:58:53;;;;;;;24.73;18.38;;;;;;;;;;4978670;28;20023;-85
2021/04/19 05:01:20;;;;;;;23.80;18.52;;;;;;;;;;4961363;28;20324;-85
2021/04/19 05:03:48;;;;;;;24.77;18.13;;;;;;;;;;4961367;28;20035;-85
2021/04/19 05:06:14;;;;;;;24.60;18.45;;;;;;;;;;4978303;28;20405;-84
2021/04/19 05:08:41;;;;;;;34.05;23.67;;;;;;;;;;4978476;28;20122;-84
2021/04/19 05:11:08;;;;;;;40.25;28.25;;;;;;;;;;4978302;28;20035;-83
2021/04/19 05:13:34;;;;;;;41.38;30.67;;;;;;;;;;4981805;28;20022;-83
2021/04/19 05:16:01;;;;;;;37.15;29.15;;;;;;;;;;4964149;28;20035;-84
2021/04/19 05:18:27;;;;;;;29.83;22.23;;;;;;;;;;4981458;28;20401;-83
2021/04/19 05:20:55;;;;;;;27.58;20.65;;;;;;;;;;4964403;28;20097;-83
2021/04/19 05:23:21;;;;;;;27.27;20.42;;;;;;;;;;4982023;28;20315;-84
2021/04/19 05:25:47;;;;;;;27.98;20.25;;;;;;;;;;4981904;28;20023;-84
2021/04/19 05:28:14;;;;;;;25.00;19.70;;;;;;;;;;4981742;28;20076;-85
2021/04/19 05:30:59;;;;;;;29.38;20.98;;;;;;;;;;4981587;28;20069;-83
2021/04/19 05:33:25;;;;;;;28.15;21.17;;;;;;;;;;4964374;28;20040;-84
2021/04/19 05:35:51;;;;;;;26.70;20.17;;;;;;;;;;4981486;28;20033;-83
2021/04/19 05:38:18;;;;;;;25.33;19.52;;;;;;;;;;4964123;28;20349;-82
2021/04/19 05:40:45;;;;;;;24.67;19.27;;;;;;;;;;4964098;28;20070;-83
2021/04/19 05:43:13;;;;;;;27.00;20.77;;;;;;;;;;4981061;28;20106;-83
2021/04/19 05:46:16;;;;;;;25.15;19.15;;;;;;;;;;4981407;28;20030;-82
2021/04/19 05:48:43;;;;;;;27.48;19.95;;;;;;;;;;4980355;28;20030;-85
2021/04/19 05:51:11;;;;;;;26.70;19.50;;;;;;;;;;4980584;28;20081;-81
2021/04/19 05:53:37;;;;;;;23.70;18.67;;;;;;;;;;4944725;29;20055;-83
2021/04/19 05:56:05;;;;;;;24.45;18.27;;;;;;;;;;4945067;29;20046;-83
2021/04/19 05:59:00;;;;;;;25.67;19.75;;;;;;;;;;4962064;29;20031;-84
2021/04/19 06:01:27;;;;;;;24.20;17.58;;;;;;;;;;4884304;29;20432;-83
2021/04/19 06:03:58;;;;;;;24.88;18.33;;;;;;;;;;4884337;29;20348;-83
2021/04/19 06:06:32;;;;;;;27.15;20.48;;;;;;;;;;4868565;29;20094;-83
2021/04/19 06:09:01;;;;;;;25.80;19.20;;;;;;;;;;4868405;29;20044;-83
2021/04/19 06:11:30;;;;;;;27.10;19.23;;;;;;;;;;4868063;29;20128;-84
2021/04/19 06:13:56;;;;;;;25.65;17.85;;;;;;;;;;4884017;29;20412;-84
2021/04/19 06:19:33;;;;;;;30.58;20.85;;;;;;;;;;4862577;29;20386;-84
2021/04/19 06:21:59;;;;;;;35.85;24.92;;;;;;;;;;4883756;29;20039;-83
2021/04/19 06:24:25;;;;;;;42.45;26.13;;;;;;;;;;4893342;29;20057;-83
2021/04/19 06:26:51;;;;;;;40.20;25.67;;;;;;;;;;4885748;29;20032;-83
2021/04/19 06:29:25;;;;;;;32.25;23.15;;;;;;;;;;4902357;29;20028;-83
2021/04/19 06:31:52;;;;;;;28.58;20.92;;;;;;;;;;4902248;29;20120;-83
2021/04/19 06:34:18;;;;;;;25.00;20.08;;;;;;;;;;4902112;29;20471;-84
2021/04/19 06:36:45;;;;;;;26.98;20.90;;;;;;;;;;4903170;29;20335;-84
2021/04/19 06:39:13;;;;;;;27.95;20.17;;;;;;;;;;4922933;29;20362;-83
2021/04/19 06:41:39;;;;;;;24.02;17.73;;;;;;;;;;4923101;29;20168;-82
2021/04/19 06:44:05;;;;;;;22.70;16.95;;;;;;;;;;4931756;29;20052;-82
2021/04/19 06:46:39;;;;;;;21.85;15.95;;;;;;;;;;4926238;29;20060;-83
2021/04/19 06:49:06;;;;;;;19.00;15.55;;;;;;;;;;4922968;29;20478;-84
2021/04/19 06:51:33;;;;;;;20.20;15.63;;;;;;;;;;4922546;29;20068;-83
2021/04/19 06:53:59;;;;;;;20.92;16.30;;;;;;;;;;4927802;29;20083;-83
2021/04/19 06:56:28;;;;;;;19.60;15.07;;;;;;;;;;4930004;29;20115;-83
2021/04/19 06:58:57;;;;;;;20.17;15.70;;;;;;;;;;4925823;29;20025;-83
2021/04/19 07:01:28;;;;;;;22.60;16.95;;;;;;;;;;4922349;29;20043;-83
2021/04/19 07:04:04;;;;;;;16.40;13.18;;;;;;;;;;4922578;29;20056;-83
2021/04/19 07:06:32;;;;;;;20.02;15.05;;;;;;;;;;4922244;29;20043;-83
2021/04/19 07:09:05;;;;;;;16.15;13.38;;;;;;;;;;4922300;29;20059;-83
2021/04/19 07:11:33;;;;;;;;;;;;;;;;;;4922802;29;20040;-84
2021/04/19 07:14:00;;;;;;;20.15;15.23;;;;;;;;;;4921099;29;19918;-83
2021/04/19 07:19:31;;;;;;;175.75;95.75;;;;;;;;;;4922302;29;20084;-84
2021/04/19 07:21:57;;;;;;;73.13;42.53;;;;;;;;;;4960227;29;20102;-84
2021/04/19 07:24:27;;;;;;;71.10;41.47;;;;;;;;;;4960158;29;20042;-83
2021/04/19 07:26:54;;;;;;;48.83;30.63;;;;;;;;;;4960287;29;20035;-83
2021/04/19 07:29:20;;;;;;;57.60;35.65;;;;;;;;;;4960009;29;20099;-83
2021/04/19 07:32:04;;;;;;;30.17;21.27;;;;;;;;;;4942745;29;20063;-83
2021/04/19 07:34:31;;;;;;;28.98;20.73;;;;;;;;;;4958821;28;20497;-80
2021/04/19 07:36:59;;;;;;;32.80;23.20;;;;;;;;;;4942511;29;20074;-80
2021/04/19 07:39:26;;;;;;;28.33;20.17;;;;;;;;;;4959279;29;20489;-80
2021/04/19 07:41:59;;;;;;;27.05;20.10;;;;;;;;;;4959396;29;20035;-80
2021/04/19 07:44:37;;;;;;;31.58;21.13;;;;;;;;;;4959433;29;20035;-80
2021/04/19 07:47:22;;;;;;;38.05;23.33;;;;;;;;;;4959346;29;20114;-80
2021/04/19 07:49:58;;;;;;;29.58;19.27;;;;;;;;;;4959662;29;20023;-80
2021/04/19 07:52:28;;;;;;;30.48;21.40;;;;;;;;;;4942224;29;20122;-80
2021/04/19 07:55:05;;;;;;;38.67;25.27;;;;;;;;;;4942252;29;20034;-80
2021/04/19 07:57:32;;;;;;;30.88;21.38;;;;;;;;;;4959475;29;20027;-80
2021/04/19 08:03:06;;;;;;;35.70;26.42;;;;;;;;;;4959210;28;20077;-80
2021/04/19 08:05:33;;;;;;;125.95;89.20;;;;;;;;;;4958554;29;20039;-80
2021/04/19 08:07:59;;;;;;;100.68;78.32;;;;;;;;;;4959442;29;20027;-79
2021/04/19 08:10:26;;;;;;;75.47;54.13;;;;;;;;;;4959181;29;20031;-78
2021/04/19 08:13:01;;;;;;;55.00;37.58;;;;;;;;;;4959118;29;20027;-80
2021/04/19 08:15:27;;;;;;;40.08;29.40;;;;;;;;;;4958791;29;20027;-78
2021/04/19 08:17:59;;;;;;;39.08;28.70;;;;;;;;;;4958906;29;20043;-78
2021/04/19 08:20:26;;;;;;;32.05;24.15;;;;;;;;;;4958668;29;20049;-78
2021/04/19 08:22:52;;;;;;;31.65;24.20;;;;;;;;;;4941955;29;20118;-79
2021/04/19 08:25:19;;;;;;;33.00;21.88;;;;;;;;;;4941867;29;20031;-78
2021/04/19 08:27:47;;;;;;;30.48;23.60;;;;;;;;;;4958866;29;20066;-78
2021/04/19 08:30:14;;;;;;;43.53;29.90;;;;;;;;;;4958852;28;20031;-78
2021/04/19 08:32:42;;;;;;;35.70;24.73;;;;;;;;;;4958725;29;20026;-78
2021/04/19 08:35:08;;;;;;;35.60;24.63;;;;;;;;;;4958957;29;20024;-79
2021/04/19 08:37:34;;;;;;;35.25;25.48;;;;;;;;;;4958402;28;20073;-78
2021/04/19 08:40:01;;;;;;;32.65;23.58;;;;;;;;;;4958943;28;20027;-79
2021/04/19 08:42:28;;;;;;;31.05;22.30;;;;;;;;;;4958766;29;20441;-78
2021/04/19 08:44:58;;;;;;;44.47;28.70;;;;;;;;;;4958814;29;20043;-78
2021/04/19 08:47:28;;;;;;;159.18;81.18;;;;;;;;;;4962152;28;20020;-78
2021/04/19 08:50:01;;;;;;;82.30;44.88;;;;;;;;;;4962656;29;20023;-78
2021/04/19 08:52:27;;;;;;;41.92;27.92;;;;;;;;;;4962427;29;20061;-78
2021/04/19 08:54:54;;;;;;;52.28;33.33;;;;;;;;;;4945208;29;20094;-78
2021/04/19 08:57:20;;;;;;;42.63;27.88;;;;;;;;;;4962383;29;20015;-78
2021/04/19 08:59:47;;;;;;;43.95;30.33;;;;;;;;;;4962382;29;20119;-78
2021/04/19 09:02:15;;;;;;;38.67;26.65;;;;;;;;;;4962345;29;20110;-78
2021/04/19 09:04:41;;;;;;;35.72;24.77;;;;;;;;;;4945188;29;20043;-78
2021/04/19 09:07:08;;;;;;;68.20;40.05;;;;;;;;;;4945187;29;20415;-78
2021/04/19 09:09:34;;;;;;;50.83;31.67;;;;;;;;;;4962386;29;20054;-78
2021/04/19 09:12:21;;;;;;;39.08;25.45;;;;;;;;;;4962079;29;20031;-78
2021/04/19 09:14:47;;;;;;;47.55;34.80;;;;;;;;;;4962204;29;20023;-78
2021/04/19 09:17:27;;;;;;;54.47;41.22;;;;;;;;;;4961697;28;20325;-79
2021/04/19 09:20:00;;;;;;;60.97;41.97;;;;;;;;;;4961708;29;20046;-78
2021/04/19 09:22:26;;;;;;;71.18;42.97;;;;;;;;;;4961879;29;20031;-78
2021/04/19 09:25:03;;;;;;;74.82;45.17;;;;;;;;;;4961938;29;20107;-78
2021/04/19 09:27:48;;;;;;;68.35;42.22;;;;;;;;;;4961780;29;20040;-78
2021/04/19 09:30:27;;;;;;;75.65;53.22;;;;;;;;;;4961636;28;20034;-79
2021/04/19 09:33:05;;;;;;;72.57;54.40;;;;;;;;;;4961647;29;20366;-79
2021/04/19 09:35:48;;;;;;;113.18;89.57;;;;;;;;;;4961821;29;20081;-79
2021/04/19 09:38:42;;;;;;;112.68;78.57;;;;;;;;;;4961805;29;20107;-78
2021/04/19 09:41:09;;;;;;;98.88;63.33;;;;;;;;;;4958769;29;20031;-79
2021/04/19 09:43:36;;;;;;;96.78;55.70;;;;;;;;;;4961553;29;20054;-79
2021/04/19 09:46:09;;;;;;;155.70;79.82;;;;;;;;;;4961538;28;20031;-79
2021/04/19 09:48:38;;;;;;;117.57;61.17;;;;;;;;;;4961451;29;20414;-79
2021/04/19 09:51:15;;;;;;;76.70;41.90;;;;;;;;;;4961319;29;20031;-79
2021/04/19 09:53:44;;;;;;;67.35;38.25;;;;;;;;;;4961297;29;20055;-79
2021/04/19 09:56:10;;;;;;;51.38;31.77;;;;;;;;;;4961332;29;20500;-79
2021/04/19 09:58:37;;;;;;;47.28;31.15;;;;;;;;;;4960452;28;20070;-79
2021/04/19 10:01:04;;;;;;;45.35;27.95;;;;;;;;;;4961234;28;20110;-79
2021/04/19 10:03:30;;;;;;;50.80;31.95;;;;;;;;;;4961159;29;20023;-79
2021/04/19 10:06:00;;;;;;;89.80;43.88;;;;;;;;;;4961128;29;20030;-79
2021/04/19 10:08:27;;;;;;;95.78;43.60;;;;;;;;;;4961067;28;20402;-79
2021/04/19 10:10:53;;;;;;;156.63;60.80;;;;;;;;;;4960970;29;20043;-79
2021/04/19 10:13:27;;;;;;;98.47;46.47;;;;;;;;;;4960990;29;20050;-79
2021/04/19 10:16:07;;;;;;;72.30;38.60;;;;;;;;;;4961072;29;20023;-81
2021/04/19 10:18:34;;;;;;;55.65;33.35;;;;;;;;;;4960987;29;20035;-78
2021/04/19 10:21:00;;;;;;;51.67;31.58;;;;;;;;;;4960950;29;20055;-79
2021/04/19 10:23:41;;;;;;;71.43;39.78;;;;;;;;;;4943851;29;20061;-79
2021/04/19 10:26:08;;;;;;;74.95;43.15;;;;;;;;;;4960689;29;20345;-79
2021/04/19 10:28:42;;;;;;;69.55;41.75;;;;;;;;;;4960730;29;20027;-79
2021/04/19 10:31:11;;;;;;;96.13;51.58;;;;;;;;;;4960579;29;20034;-79
2021/04/19 10:33:38;;;;;;;47.95;30.90;;;;;;;;;;4960929;29;20102;-79
2021/04/19 10:36:15;;;;;;;53.33;33.20;;;;;;;;;;4960676;29;20020;-79
2021/04/19 10:38:41;;;;;;;67.65;38.67;;;;;;;;;;4960467;29;20501;-78
2021/04/19 10:41:07;;;;;;;77.22;42.40;;;;;;;;;;4960473;29;20134;-79
2021/04/19 10:43:33;;;;;;;91.25;49.28;;;;;;;;;;4943486;29;20043;-79
2021/04/19 10:46:00;;;;;;;77.75;43.33;;;;;;;;;;4960521;29;20039;-79
2021/04/19 10:48:30;;;;;;;96.55;55.60;;;;;;;;;;4960446;29;20330;-79
2021/04/19 10:50:59;;;;;;;101.45;65.22;;;;;;;;;;4960192;29;20051;-80
2021/04/19 10:53:32;;;;;;;110.57;65.32;;;;;;;;;;4960541;29;20031;-78
2021/04/19 10:55:59;;;;;;;59.38;38.80;;;;;;;;;;4960403;29;20046;-79
2021/04/19 10:58:25;;;;;;;44.78;30.27;;;;;;;;;;4960174;29;20030;-78
2021/04/19 11:00:51;;;;;;;45.35;29.55;;;;;;;;;;4959974;28;20123;-78
2021/04/19 11:03:18;;;;;;;49.78;34.08;;;;;;;;;;4959831;28;20028;-79
2021/04/19 11:05:44;;;;;;;52.92;33.63;;;;;;;;;;4960093;29;20039;-78
2021/04/19 11:08:10;;;;;;;57.95;39.97;;;;;;;;;;4973708;28;20520;-79
2021/04/19 11:10:36;;;;;;;46.70;32.25;;;;;;;;;;4979241;28;20414;-80
2021/04/19 11:13:04;;;;;;;52.17;33.47;;;;;;;;;;4979297;28;20022;-79
2021/04/19 11:15:35;;;;;;;56.55;35.10;;;;;;;;;;4979157;28;20026;-79
2021/04/19 11:18:11;;;;;;;53.05;33.42;;;;;;;;;;4979193;28;20058;-79
2021/04/19 11:20:38;;;;;;;35.08;24.38;;;;;;;;;;4979006;28;20425;-81
2021/04/19 11:23:04;;;;;;;30.70;22.30;;;;;;;;;;4979102;28;20031;-79
2021/04/19 11:25:31;;;;;;;36.25;23.80;;;;;;;;;;4979090;28;20023;-80
2021/04/19 11:28:17;;;;;;;39.45;27.33;;;;;;;;;;4979134;28;20034;-79
2021/04/19 11:30:43;;;;;;;34.15;24.15;;;;;;;;;;4885046;29;20071;-79
2021/04/19 11:33:13;;;;;;;37.35;26.80;;;;;;;;;;4900822;29;20043;-79
2021/04/19 11:35:43;;;;;;;42.30;27.52;;;;;;;;;;4885032;29;20028;-79
2021/04/19 11:38:23;;;;;;;38.53;27.17;;;;;;;;;;4900723;29;20073;-80
2021/04/19 11:41:12;;;;;;;35.78;25.80;;;;;;;;;;4900577;29;20037;-79
2021/04/19 11:43:46;;;;;;;37.50;27.20;;;;;;;;;;4845089;29;20034;-79
2021/04/19 11:46:14;;;;;;;29.48;21.58;;;;;;;;;;4844760;29;20205;-79
2021/04/19 11:48:42;;;;;;;31.85;22.95;;;;;;;;;;4844701;29;20061;-79
2021/04/19 11:51:09;;;;;;;33.13;22.73;;;;;;;;;;4844693;29;20470;-79
2021/04/19 11:53:36;;;;;;;31.13;21.63;;;;;;;;;;4844800;29;20022;-79
2021/04/19 11:56:03;;;;;;;30.27;21.85;;;;;;;;;;4844674;29;20334;-80
2021/04/19 11:58:30;;;;;;;31.58;21.48;;;;;;;;;;4844795;29;20346;-81
2021/04/19 12:00:56;;;;;;;34.40;24.85;;;;;;;;;;4844389;29;20038;-79
2021/04/19 12:03:23;;;;;;;31.33;21.95;;;;;;;;;;4844629;29;20034;-79
2021/04/19 12:05:49;;;;;;;30.67;21.88;;;;;;;;;;4844129;29;20429;-79
2021/04/19 12:08:15;;;;;;;26.52;19.52;;;;;;;;;;4870475;29;20045;-79
2021/04/19 12:10:41;;;;;;;32.42;23.05;;;;;;;;;;4881565;29;20033;-80
2021/04/19 12:13:14;;;;;;;29.30;20.38;;;;;;;;;;4881432;29;20332;-79
2021/04/19 12:15:44;;;;;;;27.10;19.92;;;;;;;;;;4881354;29;20028;-79
2021/04/19 12:18:11;;;;;;;29.38;20.80;;;;;;;;;;4881355;29;20432;-80
2021/04/19 12:20:38;;;;;;;24.13;18.83;;;;;;;;;;4911347;28;20046;-80
2021/04/19 12:23:04;;;;;;;25.00;19.27;;;;;;;;;;4957827;29;20067;-80
2021/04/19 12:25:31;;;;;;;25.33;18.08;;;;;;;;;;4957827;29;20082;-80
2021/04/19 12:27:58;;;;;;;31.20;21.25;;;;;;;;;;4958935;29;20039;-80
2021/04/19 12:30:25;;;;;;;29.52;21.13;;;;;;;;;;4958876;28;20110;-79
2021/04/19 12:32:51;;;;;;;23.40;18.80;;;;;;;;;;4958760;29;20414;-79
2021/04/19 12:35:19;;;;;;;29.05;20.00;;;;;;;;;;4958873;29;20355;-79
2021/04/19 12:37:45;;;;;;;22.77;18.50;;;;;;;;;;4958839;28;20023;-79
2021/04/19 12:40:12;;;;;;;24.02;18.55;;;;;;;;;;4958813;29;20023;-80
2021/04/19 12:42:38;;;;;;;23.13;18.00;;;;;;;;;;4958782;29;20038;-80
2021/04/19 12:45:04;;;;;;;21.65;17.70;;;;;;;;;;4958411;29;20047;-80
2021/04/19 12:47:30;;;;;;;22.45;17.35;;;;;;;;;;4958806;29;20028;-80
2021/04/19 12:49:56;;;;;;;20.95;16.52;;;;;;;;;;4958864;29;20019;-80
2021/04/19 12:52:23;;;;;;;20.75;16.33;;;;;;;;;;4958642;29;20062;-80
2021/04/19 12:54:49;;;;;;;19.98;15.13;;;;;;;;;;4957607;29;20073;-80
2021/04/19 12:57:15;;;;;;;20.85;15.75;;;;;;;;;;4958624;29;20322;-80
2021/04/19 12:59:41;;;;;;;21.98;16.58;;;;;;;;;;4958533;29;20024;-80
2021/04/19 13:02:07;;;;;;;21.10;15.60;;;;;;;;;;4957434;29;20042;-80
2021/04/19 13:04:33;;;;;;;19.27;15.48;;;;;;;;;;4957482;29;20035;-79
2021/04/19 13:06:59;;;;;;;18.05;14.80;;;;;;;;;;4958462;29;20027;-80
2021/04/19 13:09:26;;;;;;;19.13;15.32;;;;;;;;;;4958600;29;20038;-80
2021/04/19 13:11:52;;;;;;;22.05;17.25;;;;;;;;;;4958500;28;20358;-80
2021/04/19 13:14:18;;;;;;;20.60;16.20;;;;;;;;;;4958572;29;20031;-80
2021/04/19 13:16:44;;;;;;;19.90;15.63;;;;;;;;;;4958448;29;20070;-80
2021/04/19 13:19:10;;;;;;;16.30;13.65;;;;;;;;;;4958522;29;20023;-80
2021/04/19 13:21:36;;;;;;;18.50;13.07;;;;;;;;;;4958200;29;20051;-80
2021/04/19 13:24:03;;;;;;;19.33;14.82;;;;;;;;;;4958414;29;20024;-80
2021/04/19 13:26:30;;;;;;;26.25;15.65;;;;;;;;;;4958459;28;20061;-80
2021/04/19 13:28:56;;;;;;;20.15;14.45;;;;;;;;;;4957214;29;20373;-80
2021/04/19 13:31:22;;;;;;;18.83;13.00;;;;;;;;;;4958012;28;20035;-80
2021/04/19 13:33:49;;;;;;;17.23;13.38;;;;;;;;;;4960872;29;20028;-80
2021/04/19 13:36:15;;;;;;;17.95;13.95;;;;;;;;;;4962538;29;20317;-80
2021/04/19 13:38:41;;;;;;;15.45;10.73;;;;;;;;;;4961726;29;20031;-80
2021/04/19 13:41:07;;;;;;;12.52;9.35;;;;;;;;;;4961800;29;20032;-81
2021/04/19 13:43:34;;;;;;;13.93;9.82;;;;;;;;;;4960590;29;20047;-80
2021/04/19 13:46:00;;;;;;;15.35;11.30;;;;;;;;;;4961855;28;20042;-80
2021/04/19 13:48:26;;;;;;;14.35;10.45;;;;;;;;;;4961470;29;20118;-80
2021/04/19 13:50:52;;;;;;;13.45;11.10;;;;;;;;;;4961496;29;20038;-80
2021/04/19 13:53:18;;;;;;;12.63;10.05;;;;;;;;;;4961427;29;20027;-80
2021/04/19 13:55:44;;;;;;;11.30;9.38;;;;;;;;;;4961391;29;20029;-80
2021/04/19 13:58:10;;;;;;;9.80;7.22;;;;;;;;;;4961279;29;20023;-80
2021/04/19 14:00:36;;;;;;;10.02;7.93;;;;;;;;;;4961253;29;20031;-80
2021/04/19 14:03:03;;;;;;;9.48;7.20;;;;;;;;;;4961429;29;20027;-80
2021/04/19 14:05:29;;;;;;;9.40;6.75;;;;;;;;;;4960185;29;20031;-80
2021/04/19 14:07:55;;;;;;;9.90;7.20;;;;;;;;;;4960181;29;20043;-81
2021/04/19 14:10:21;;;;;;;11.38;9.57;;;;;;;;;;4959946;29;20031;-80
2021/04/19 14:12:48;;;;;;;15.93;12.20;;;;;;;;;;4961140;29;20410;-81
2021/04/19 14:15:15;;;;;;;12.43;9.95;;;;;;;;;;4959705;29;20104;-80
2021/04/19 14:17:41;;;;;;;15.73;11.75;;;;;;;;;;4960923;29;20310;-80
2021/04/19 14:20:11;;;;;;;20.60;13.05;;;;;;;;;;4960602;28;20043;-80
2021/04/19 14:22:38;;;;;;;15.00;12.63;;;;;;;;;;4961203;29;20321;-81
2021/04/19 14:25:05;;;;;;;13.65;10.25;;;;;;;;;;4960758;28;20053;-81
2021/04/19 14:27:31;;;;;;;17.13;12.02;;;;;;;;;;4960931;29;20055;-81
2021/04/19 14:29:57;;;;;;;18.05;13.95;;;;;;;;;;4960883;29;20027;-81
2021/04/19 14:32:24;;;;;;;13.32;10.75;;;;;;;;;;4960734;29;20031;-81
2021/04/19 14:34:50;;;;;;;14.68;10.18;;;;;;;;;;4959363;28;20062;-81
2021/04/19 14:37:16;;;;;;;15.95;11.38;;;;;;;;;;4959551;29;20390;-81
2021/04/19 14:39:42;;;;;;;12.48;10.32;;;;;;;;;;4960587;28;20410;-81
2021/04/19 14:42:09;;;;;;;15.73;11.95;;;;;;;;;;4959596;29;20043;-80
2021/04/19 14:44:35;;;;;;;17.90;11.88;;;;;;;;;;4960234;28;20027;-80
2021/04/19 14:47:02;;;;;;;17.83;11.88;;;;;;;;;;4959581;28;20081;-80
2021/04/19 14:49:28;;;;;;;16.10;12.63;;;;;;;;;;4960413;29;20030;-80
2021/04/19 14:51:55;;;;;;;18.27;13.77;;;;;;;;;;4960262;29;20326;-80
2021/04/19 14:54:22;;;;;;;19.50;13.73;;;;;;;;;;4960226;28;20357;-80
2021/04/19 14:56:48;;;;;;;16.02;12.27;;;;;;;;;;4960307;29;20057;-80